Stations météo

réclame
Mon MeteoGroup
Neuhaus am Rennweg, Allemagne (10557): Température de l'air & dewpoint: 14.07.2018 10:00:00 - 20.07.2018 10:00:00 (CEST)Neuhaus am Rennweg, Allemagne (10557): Température de l'air 5cm & Température de l'air -5cm: 14.07.2018 10:00:00 - 20.07.2018 10:00:00 (CEST)Neuhaus am Rennweg, Allemagne (10557): Température de l'air -20cm & Température de l'air -100cm: 14.07.2018 10:00:00 - 20.07.2018 10:00:00 (CEST)Neuhaus am Rennweg, Allemagne (10557): Vitesse du vent & gusts: 14.07.2018 10:00:00 - 20.07.2018 10:00:00 (CEST)Neuhaus am Rennweg, Allemagne (10557): Direction du vent: 14.07.2018 10:00:00 - 20.07.2018 10:00:00 (CEST)Neuhaus am Rennweg, Allemagne (10557): visibility: 14.07.2018 10:00:00 - 20.07.2018 10:00:00 (CEST)Neuhaus am Rennweg, Allemagne (10557): Ensoleillement: 14.07.2018 10:00:00 - 20.07.2018 10:00:00 (CEST)Neuhaus am Rennweg, Allemagne (10557): Quantités de précipitations: 14.07.2018 10:00:00 - 20.07.2018 10:00:00 (CEST)
Date & Time tt [°C] td [°C] tt 5cm [°C] tt -5cm [°C] tt -20cm [°C] tt -100cm [°C] ff [km/h] ff [knt] fx [km/h] fx [knt] dd vv [km] sd [min] rr [mm]
20.07.2018 10:00:00 19,9 8,6 19,6 18,1 17,4 15,0 9 5 17 9 S 42 60 0,0
20.07.2018 09:00:00 18,9 9,2 21,8 17,1 17,5 15,0 9 5 19 10 S 32 60 0,0
20.07.2018 08:00:00 17,4 9,0 18,9 15,2 17,7 15,0 6 4 16 9 SSE 43 60 0,0
20.07.2018 07:00:00 15,4 7,3 13,9 14,1 18,0 15,0 7 4 13 7 SSE 63 52 0,0
20.07.2018 06:00:00 13,3 6,2 8,9 14,3 18,4 15,0 9 5 14 8 ESE 68 0 0,0
20.07.2018 05:00:00 12,3 6,3 7,6 14,8 18,8 15,0 9 5 13 7 ENE 52 0 0,0
20.07.2018 04:00:00 13,9 5,7 10,4 15,4 19,1 15,0 10 6 15 8 NNE 60 0 0,0
20.07.2018 03:00:00 14,3 5,4 10,8 16,0 19,5 15,0 11 6 14 8 NNE 54 0 0,0
20.07.2018 02:00:00 15,3 5,6 12,1 16,8 19,9 15,0 9 5 21 11 NE 63 0 0,0
20.07.2018 01:00:00 15,9 5,4 13,5 17,6 20,3 15,0 14 8 20 11 ENE 68 0 0,0
20.07.2018 00:00:00 16,2 5,8 13,6 18,6 20,6 15,0 14 8 20 11 ENE 66 0 0,0
19.07.2018 23:00:00 16,8 6,6 14,7 19,7 20,9 15,0 11 6 21 12 ENE 63 0 0,0
19.07.2018 22:00:00 17,9 6,4 15,3 21,2 21,1 15,0 9 5 17 9 NE 70 0 0,0
19.07.2018 21:00:00 19,5 5,7 17,7 22,8 21,2 15,0 9 5 18 10 N 70 54 0,0
19.07.2018 20:00:00 21,2 5,1 21,7 24,3 21,0 15,0 8 5 17 9 N 70 60 0,0
19.07.2018 19:00:00 21,7 5,7 24,4 25,7 20,8 15,0 6 4 20 11 NNE 46 60 0,0
19.07.2018 18:00:00 21,9 5,5 26,6 26,8 20,3 15,0 8 4 24 13 NE 31 60 0,0
19.07.2018 17:00:00 22,3 6,1 27,9 27,4 19,8 15,0 10 5 22 12 N 26 60 0,0
19.07.2018 16:00:00 21,4 6,0 26,9 27,3 19,1 15,0 11 6 25 13 NNE 23 60 0,0
19.07.2018 15:00:00 21,3 6,6 27,7 26,5 18,5 14,9 11 6 23 12 NNW 28 60 0,0
19.07.2018 14:00:00 20,3 6,6 27,1 25,4 17,9 14,9 12 7 27 14 N 27 60 0,0
19.07.2018 13:00:00 19,3 6,3 26,3 23,6 17,3 14,9 10 6 24 13 N 39 60 0,0
19.07.2018 12:00:00 18,7 5,9 23,4 21,2 17,0 14,9 8 5 21 11 NNW 26 60 0,0
19.07.2018 11:00:00 17,4 6,4 22,3 18,5 16,9 14,9 9 5 18 10 WNW 26 60 0,0
19.07.2018 10:00:00 16,1 5,8 14,5 16,6 16,8 14,9 7 4 18 10 N 53 60 0,0
19.07.2018 09:00:00 15,1 7,4 18,4 15,9 16,9 14,9 9 5 16 9 N 30 60 0,0
19.07.2018 08:00:00 14,1 8,3 15,9 14,2 17,2 14,9 9 5 17 9 N 34 60 0,0
19.07.2018 07:00:00 12,4 8,1 12,6 13,3 17,5 14,9 9 5 18 10 N 51 55 0,0
19.07.2018 06:00:00 10,8 7,7 8,1 13,5 17,8 14,9 10 5 16 8 N 41 0 0,0
19.07.2018 05:00:00 10,9 7,6 8,9 14,0 18,2 14,9 8 5 15 8 N 43 0 0,0
19.07.2018 04:00:00 11,5 7,7 8,6 14,6 18,6 14,9 9 5 19 10 N 50 0 0,0
19.07.2018 03:00:00 12,6 7,9 10,6 15,2 18,9 14,9 10 6 22 12 N 48 0 0,0
19.07.2018 02:00:00 13,4 7,8 11,5 15,9 19,3 14,9 11 6 26 14 N 57 0 0,0
19.07.2018 01:00:00 13,6 7,9 11,8 16,7 19,7 14,9 13 7 23 12 N 53 0 0,0
19.07.2018 00:00:00 14,1 7,9 12,0 17,6 20,1 14,9 11 6 25 13 N 54 0 0,0
18.07.2018 23:00:00 15,4 7,7 13,5 18,6 20,4 14,9 13 7 25 14 N 62 0 0,0
18.07.2018 22:00:00 16,5 7,4 14,7 20,0 20,6 14,9 12 6 24 13 N 59 1 0,0
18.07.2018 21:00:00 18,4 7,2 17,0 21,6 20,7 14,9 13 7 27 15 N 70 60 0,0
18.07.2018 20:00:00 20,4 6,9 20,6 23,1 20,6 14,9 13 7 29 16 N 70 60 0,0
18.07.2018 19:00:00 21,0 6,6 22,9 24,5 20,4 14,9 15 8 30 16 N 30 60 0,0
18.07.2018 18:00:00 21,5 6,5 24,4 25,5 20,1 14,9 11 6 30 16 NNW 25 60 0,0
18.07.2018 17:00:00 21,6 8,0 24,4 26,0 19,6 14,9 13 7 26 14 NW 62 35 0,0
18.07.2018 16:00:00 21,8 7,3 26,8 26,6 19,0 14,9 13 7 28 15 WNW 36 53 0,0
18.07.2018 15:00:00 22,0 9,0 26,6 25,6 18,5 14,9 13 7 30 16 NW 56 54 0,0
18.07.2018 14:00:00 21,4 8,6 28,1 23,4 18,1 14,9 13 7 31 17 W 52 35 0,0
18.07.2018 13:00:00 19,3 9,7 21,2 22,6 17,7 14,9 16 9 30 16 NW 58 24 0,0
18.07.2018 12:00:00 19,9 11,5 26,1 21,1 17,4 14,9 9 5 23 12 NNW 35 39 0,0
18.07.2018 11:00:00 18,5 11,4 21,4 19,1 17,3 14,9 8 4 24 13 N 28 45 0,0
18.07.2018 10:00:00 17,8 12,0 17,5 17,8 17,2 14,9 12 6 24 13 N 25 60 0,0
18.07.2018 09:00:00 16,6 12,7 18,9 17,1 17,3 14,9 16 8 27 15 NNW 14 59 0,0
18.07.2018 08:00:00 15,7 12,2 16,9 15,8 17,5 14,9 12 6 27 15 NNW 22 60 0,0
18.07.2018 07:00:00 15,1 11,2 14,9 15,2 17,7 14,9 15 8 28 15 NNW 20 33 0,0
18.07.2018 06:00:00 14,8 10,5 13,7 15,3 17,9 14,9 13 7 25 13 NNW 36 0 0,0
18.07.2018 05:00:00 15,4 10,4 13,8 15,8 18,2 14,9 15 8 27 15 NNW 35 0 0,0
18.07.2018 04:00:00 16,3 10,2 14,4 16,4 18,4 14,9 14 8 33 18 NNW 43 0 0,0
18.07.2018 03:00:00 17,2 9,8 16,2 16,8 18,6 14,9 14 8 28 15 NW 45 0 0,0
18.07.2018 02:00:00 17,1 9,2 15,3 17,2 18,9 14,9 13 7 23 12 NW 37 0 0,0
18.07.2018 01:00:00 18,0 9,1 17,0 17,5 19,1 14,9 13 7 21 11 NW 35 0 0,0
18.07.2018 00:00:00 17,2 8,2 14,6 17,9 19,4 14,9 13 7 27 15 NW 54 0 0,0
17.07.2018 23:00:00 18,0 7,7 16,0 18,7 19,7 14,9 13 7 24 13 NW 70 0 0,0
17.07.2018 22:00:00 19,0 6,8 16,7 19,7 19,8 14,9 13 7 26 14 NW 70 0 0,0
17.07.2018 21:00:00 21,0 6,1 19,0 21,0 19,9 14,9 13 7 28 15 NW 70 51 0,0
17.07.2018 20:00:00 22,5 4,9 21,8 22,3 19,8 14,9 14 8 33 18 NW 70 57 0,0
17.07.2018 19:00:00 23,6 3,7 24,3 23,4 19,6 14,9 19 10 39 21 NNW 49 60 0,0
17.07.2018 18:00:00 23,8 4,9 26,0 24,3 19,3 14,9 18 10 32 18 N 46 45 0,0
17.07.2018 17:00:00 24,4 8,2 27,9 24,8 18,8 14,9 24 13 36 19 NW 24 47 0,0
17.07.2018 16:00:00 23,8 7,5 27,6 24,8 18,3 14,9 18 10 36 19 WNW 44 44 0,0
17.07.2018 15:00:00 23,9 7,1 28,7 24,1 17,8 14,9 17 9 34 19 W 24 44 0,0
17.07.2018 14:00:00 22,7 9,1 26,7 23,0 17,3 14,9 16 8 44 24 WNW 47 36 0,0
17.07.2018 13:00:00 21,7 9,8 24,6 21,9 16,9 14,9 15 8 27 15 WSW 48 18 0,0
17.07.2018 12:00:00 21,2 10,5 23,5 21,6 16,4 14,9 13 7 24 13 WNW 48 44 0,0
17.07.2018 11:00:00 21,4 9,3 25,5 19,2 16,2 14,9 13 7 24 13 W 31 60 0,0
17.07.2018 10:00:00 20,5 9,0 19,7 17,1 16,0 14,8 8 5 18 10 NW 42 51 0,0
17.07.2018 09:00:00 19,5 8,8 21,6 16,3 16,0 14,8 8 4 16 9 W 40 60 0,0
17.07.2018 08:00:00 18,2 10,4 19,9 14,2 16,1 14,8 6 3 13 7 WNW 47 60 0,0
17.07.2018 07:00:00 15,1 8,5 13,7 13,0 16,3 14,8 9 5 12 6 WNW 48 55 0,0
17.07.2018 06:00:00 13,3 7,8 8,7 13,0 16,6 14,8 9 5 14 8 WNW 46 0 0,0
17.07.2018 05:00:00 13,5 8,1 8,8 13,4 16,9 14,8 9 5 13 7 WNW 43 0 0,0
17.07.2018 04:00:00 13,5 8,6 9,6 13,8 17,1 14,8 10 5 14 8 NW 42 0 0,0
17.07.2018 03:00:00 13,4 9,2 9,4 14,2 17,4 14,8 10 5 15 8 NW 45 0 0,0
17.07.2018 02:00:00 13,9 8,8 9,8 14,8 17,7 14,8 9 5 11 6 WNW 42 0 0,0
17.07.2018 01:00:00 13,7 9,1 9,5 15,4 17,9 14,8 7 4 8 5 W 51 0 0,0
17.07.2018 00:00:00 13,5 10,0 9,9 16,1 18,2 14,8 6 4 9 5 W 38 0 0,0
16.07.2018 23:00:00 14,2 10,7 11,0 17,0 18,3 14,8 8 4 9 5 NW 31 0 0,0
16.07.2018 22:00:00 14,6 10,3 11,3 18,2 18,3 14,8 5 3 8 5 W 35 0 0,0
16.07.2018 21:00:00 16,2 12,2 14,4 19,5 18,2 14,8 3 2 6 4 ENE 34 12 0,0
16.07.2018 20:00:00 18,3 14,3 18,7 20,2 18,0 14,8 4 2 10 5 E 28 44 0,0
16.07.2018 19:00:00 18,5 13,1 19,8 20,3 17,9 14,8 3 2 11 6 ESE 44 58 0,0
16.07.2018 18:00:00 18,3 11,9 20,8 19,4 17,8 14,8 5 3 12 6 E 42 35 0,0
16.07.2018 17:00:00 14,5 13,6 15,5 17,6 17,9 14,8 8 4 13 7 SE 9 0 0,0
16.07.2018 16:00:00 12,9 12,0 13,4 17,3 18,1 14,8 7 4 11 6 E 18 0 0,0
16.07.2018 15:00:00 12,3 11,6 12,9 17,5 18,1 14,8 6 3 14 8 WSW 10 0 0,4
16.07.2018 14:00:00 12,4 11,3 12,8 18,1 18,0 14,7 10 5 39 21 W 11 0 14,3
16.07.2018 13:00:00 14,2 11,7 11,3 22,0 17,6 14,7 26 14 39 21 W 2,2 24 0,8
16.07.2018 12:00:00 19,3 12,0 25,7 21,1 17,3 14,7 5 3 14 7 SSE 19 52 0,0
16.07.2018 11:00:00 17,8 12,2 21,2 18,9 17,2 14,7 5 3 12 6 ESE 30 5 0,0
16.07.2018 10:00:00 16,6 11,5 19,6 17,6 17,1 14,7 3 1 14 7 ENE 24 0 0,0
16.07.2018 09:00:00 16,2 12,0 17,9 16,5 17,2 14,7 4 2 13 7 ESE 25 22 0,0
16.07.2018 08:00:00 16,0 11,2 17,3 15,5 17,3 14,7 4 2 10 5 ESE 28 32 0,0
16.07.2018 07:00:00 14,5 10,9 13,2 15,0 17,5 14,7 6 3 13 7 SE 28 0 0,0
16.07.2018 06:00:00 14,4 10,5 12,4 15,1 17,7 14,7 5 3 14 8 SE 31 0 0,0
16.07.2018 05:00:00 14,1 9,5 11,6 15,2 18,0 14,7 7 4 15 8 ESE 39 0 0,0
16.07.2018 04:00:00 14,3 8,7 12,5 15,5 18,3 14,7 11 6 16 9 E 53 0 0,0
16.07.2018 03:00:00 15,1 7,9 13,8 15,7 18,6 14,7 12 6 19 10 ENE 60 0 0,0
16.07.2018 02:00:00 15,3 6,8 13,4 16,1 18,9 14,7 13 7 20 11 ENE 70 0 0,0
16.07.2018 01:00:00 15,7 8,4 13,8 16,7 19,2 14,7 16 9 19 10 ENE 65 0 0,0
16.07.2018 00:00:00 14,9 8,3 11,6 17,5 19,5 14,7 10 6 13 7 E 70 0 0,0
15.07.2018 23:00:00 14,2 9,2 11,8 18,3 19,7 14,7 7 4 13 7 SSE 66 0 0,0
15.07.2018 22:00:00 14,7 10,2 12,9 19,2 19,9 14,7 8 4 15 8 SE 59 0 0,0
15.07.2018 21:00:00 15,4 11,5 14,5 20,3 20,0 14,7 10 5 25 14 S 45 0 0,0
15.07.2018 20:00:00 16,8 11,6 17,0 21,5 20,0 14,7 13 7 29 16 SE 36 0 0,0
15.07.2018 19:00:00 20,6 9,6 21,2 22,8 19,9 14,7 10 5 27 14 ENE 53 17 0,0
15.07.2018 18:00:00 21,1 10,4 23,0 23,4 19,7 14,7 13 7 22 12 ENE 43 6 0,0
15.07.2018 17:00:00 21,5 10,4 23,8 24,5 19,4 14,6 11 6 22 12 N 56 35 0,0
15.07.2018 16:00:00 20,8 11,5 22,7 24,2 19,1 14,6 9 5 22 12 NE 41 22 0,0
15.07.2018 15:00:00 20,0 11,2 21,1 24,6 18,6 14,6 11 6 26 14 N 38 23 0,0
15.07.2018 14:00:00 20,9 11,5 27,1 24,1 18,2 14,6 10 6 21 12 N 34 38 0,0
15.07.2018 13:00:00 19,6 11,5 23,1 22,6 17,8 14,6 14 8 23 12 ENE 41 17 0,0
15.07.2018 12:00:00 20,4 11,9 26,1 22,6 17,4 14,6 8 4 18 10 N 30 57 0,0
15.07.2018 11:00:00 19,5 11,7 25,1 20,1 17,2 14,6 9 5 19 10 NNE 38 60 0,0
15.07.2018 10:00:00 18,4 11,2 18,0 18,2 17,1 14,6 8 4 14 8 NNE 27 60 0,0
15.07.2018 09:00:00 17,6 10,5 21,6 17,0 17,2 14,6 4 2 8 5 S 33 60 0,0
15.07.2018 08:00:00 15,5 10,6 18,0 15,3 17,4 14,6 5 3 11 6 ENE 24 48 0,0
15.07.2018 07:00:00 13,8 10,2 13,4 14,6 17,6 14,6 8 4 13 7 ENE 15 29 0,0
15.07.2018 06:00:00 12,9 9,7 11,0 14,6 17,9 14,6 11 6 19 10 NE 15 0 0,0
15.07.2018 05:00:00 13,4 9,8 11,5 15,0 18,2 14,6 12 7 21 11 NE 20 0 0,0
15.07.2018 04:00:00 13,7 9,8 11,9 15,5 18,6 14,6 11 6 21 11 ENE 24 0 0,0
15.07.2018 03:00:00 14,3 10,0 12,3 16,1 18,9 14,6 12 6 20 11 ENE 26 0 0,0
15.07.2018 02:00:00 15,0 9,3 13,2 16,8 19,2 14,6 11 6 18 10 NE 45 0 0,0
15.07.2018 01:00:00 15,5 8,7 13,6 17,3 19,6 14,6 14 8 20 11 ENE 55 0 0,0
15.07.2018 00:00:00 16,0 8,6 13,9 18,2 19,9 14,6 14 8 20 11 ENE 23 0 0,0
14.07.2018 23:00:00 17,1 8,5 15,2 19,3 20,1 14,6 11 6 18 10 ENE 55 0 0,0
14.07.2018 22:00:00 18,0 8,5 15,5 20,6 20,2 14,6 9 5 15 8 ENE 53 0 0,0
14.07.2018 21:00:00 19,6 8,4 18,3 21,8 20,3 14,6 7 4 22 12 N 59 56 0,0
14.07.2018 20:00:00 20,8 7,9 21,4 23,1 20,2 14,6 10 5 22 12 N 62 55 0,0
14.07.2018 19:00:00 21,2 8,2 22,6 24,1 20,1 14,6 8 4 18 10 NE 70 34 0,0
14.07.2018 18:00:00 21,7 8,3 25,5 24,6 19,8 14,6 9 5 26 14 NE 61 34 0,0
14.07.2018 17:00:00 21,3 8,3 23,9 25,3 19,4 14,6 13 7 27 15 NE 61 36 0,0
14.07.2018 16:00:00 21,7 8,7 27,8 25,3 19,0 14,6 11 6 24 13 NNW 30 30 0,0
14.07.2018 15:00:00 21,3 8,1 25,1 25,9 18,4 14,6 12 6 26 14 N 49 47 0,0
14.07.2018 14:00:00 21,1 8,5 29,2 24,9 17,8 14,6 6 4 26 14 NNW 42 47 0,0
14.07.2018 13:00:00 20,6 8,6 27,4 23,9 17,3 14,6 8 5 19 11 NNW 22 60 0,0
14.07.2018 12:00:00 19,6 7,9 25,2 21,6 17,0 14,6 10 5 20 11 N 23 60 0,0
14.07.2018 11:00:00 18,7 8,7 24,1 19,2 16,8 14,6 10 5 22 12 NNE 36 60 0,0
14.07.2018 10:00:00 17,6 9,2 16,6 17,6 16,8 14,6 9 5 21 11 N 38 60 0,0

tt = Température de l'air
td = dewpoint
tt 5cm = Température de l'air 5cm
tt -5cm = Température de l'air -5cm
tt -20cm = Température de l'air -20cm
tt -100cm = Température de l'air -100cm
ff = Vitesse du vent
fx = gusts
dd = Direction du vent
vv = visibility
sd = Ensoleillement
rr = Quantités de précipitations

stations d'obs. à proximité